Time;durP1;ratioP1;P1;durP2;ratioP2;P2;SDS_P1;SDS_P2;PMS_P1;PMS_P2;Temp;Humidity;BMP_temperature;BMP_pressure;BME280_temperature;BME280_humidity;BME280_pressure;Samples;Min_cycle;Max_cycle;Signal;HPM_P1;HPM_P2
2022/01/14 00:01:16;;;;;;;4.75;1.83;;;;;;;20.74;48.78;102769.28;4973196;28;20366;-60
2022/01/14 00:03:42;;;;;;;3.90;1.42;;;;;;;20.72;48.92;102771.22;4972992;28;20042;-60
2022/01/14 00:06:07;;;;;;;2.60;1.20;;;;;;;20.67;49.11;102775.19;4973230;28;20076;-60
2022/01/14 00:08:33;;;;;;;3.22;1.23;;;;;;;20.76;49.09;102771.84;4973017;28;20494;-60
2022/01/14 00:11:00;;;;;;;3.03;1.30;;;;;;;20.87;48.98;102766.56;4973036;28;20065;-60
2022/01/14 00:16:04;;;;;;;2.20;1.25;;;;;;;21.02;48.61;102771.72;4972833;28;20034;-60
2022/01/14 00:18:30;;;;;;;2.00;1.10;;;;;;;21.02;48.57;102772.59;4972900;28;20035;-60
2022/01/14 00:20:56;;;;;;;3.15;1.33;;;;;;;21.04;48.62;102769.81;4973150;28;20039;-60
2022/01/14 00:23:29;;;;;;;2.53;1.15;;;;;;;21.01;48.62;102760.22;4972528;28;20081;-60
2022/01/14 00:34:07;;;;;;;2.85;1.58;;;;;;;20.89;48.54;102743.28;4957477;28;20086;-60
2022/01/14 00:36:32;;;;;;;2.10;1.48;;;;;;;20.77;48.67;102755.72;4957168;29;20035;-60
2022/01/14 00:38:58;;;;;;;2.92;1.30;;;;;;;20.84;48.29;102753.44;4957246;29;20386;-60
2022/01/14 00:41:24;;;;;;;2.55;1.35;;;;;;;20.62;48.88;102747.97;4957170;29;20103;-60
2022/01/14 00:43:53;;;;;;;2.15;1.30;;;;;;;20.62;49.16;102745.31;4957309;28;20028;-60
2022/01/14 00:46:18;;;;;;;4.32;1.30;;;;;;;20.43;49.29;102738.63;4957224;28;20054;-60
2022/01/14 00:48:43;;;;;;;3.15;1.25;;;;;;;20.73;48.52;102745.38;4957004;28;20059;-60
2022/01/14 00:51:09;;;;;;;2.22;1.27;;;;;;;20.59;48.81;102731.22;4957215;29;20470;-59
2022/01/14 00:53:34;;;;;;;3.55;1.38;;;;;;;20.57;48.89;102727.78;4957384;28;20031;-60
2022/01/14 00:56:08;;;;;;;2.78;1.50;;;;;;;20.62;48.75;102730.16;4976071;28;20493;-59
2022/01/14 01:01:17;;;;;;;3.72;1.50;;;;;;;20.66;48.60;102730.81;4976350;28;20449;-60
2022/01/14 01:03:43;;;;;;;3.13;1.50;;;;;;;20.65;48.79;102721.06;4975969;28;20066;-60
2022/01/14 01:06:09;;;;;;;2.38;1.20;;;;;;;20.70;48.80;102724.25;4976271;28;20050;-60
2022/01/14 01:08:36;;;;;;;4.93;1.23;;;;;;;20.73;48.75;102724.03;4976042;28;20097;-60
2022/01/14 01:11:04;;;;;;;3.03;1.20;;;;;;;20.76;48.79;102723.81;4976207;28;20053;-60
2022/01/14 01:13:34;;;;;;;3.58;1.40;;;;;;;20.75;48.95;102722.09;4976117;28;20031;-60
2022/01/14 01:16:00;;;;;;;5.53;2.75;;;;;;;20.94;48.43;102722.41;4975900;28;20038;-60
2022/01/14 01:18:27;;;;;;;5.28;2.22;;;;;;;20.88;48.74;102720.19;4976028;28;20078;-59
2022/01/14 01:20:53;;;;;;;3.22;1.40;;;;;;;20.90;48.44;102714.75;4975836;28;20047;-60
2022/01/14 01:23:20;;;;;;;2.53;1.15;;;;;;;20.85;48.60;102714.25;4973507;28;20070;-60
2022/01/14 01:25:52;;;;;;;2.38;1.38;;;;;;;20.79;48.51;102718.22;4956302;28;20486;-60
2022/01/14 01:28:18;;;;;;;3.25;1.40;;;;;;;20.82;48.48;102718.00;4956336;28;20083;-60
2022/01/14 01:31:05;;;;;;;2.88;1.40;;;;;;;21.07;47.96;102732.16;4956362;29;20031;-59
2022/01/14 01:33:31;;;;;;;2.47;1.20;;;;;;;20.84;48.38;102729.41;4956115;28;20078;-60
2022/01/14 01:35:57;;;;;;;2.70;1.40;;;;;;;20.88;48.16;102735.38;4956351;29;20098;-60
2022/01/14 01:38:23;;;;;;;2.15;1.10;;;;;;;20.91;47.97;102732.47;4956246;29;20462;-59
2022/01/14 01:40:49;;;;;;;3.03;1.42;;;;;;;21.03;47.79;102736.03;4956148;29;20034;-59
2022/01/14 01:43:16;;;;;;;2.97;1.50;;;;;;;20.79;48.24;102729.78;4956181;28;20030;-60
2022/01/14 01:45:46;;;;;;;2.60;1.30;;;;;;;20.84;47.94;102726.75;4955786;28;20031;-59
2022/01/14 01:48:12;;;;;;;4.53;1.40;;;;;;;20.78;48.00;102725.38;4956163;29;20045;-59
2022/01/14 01:50:38;;;;;;;2.65;1.38;;;;;;;20.74;48.08;102725.72;4956225;29;20926;-59
2022/01/14 01:53:04;;;;;;;2.20;1.35;;;;;;;20.75;48.04;102722.09;4955787;28;20385;-60
2022/01/14 01:55:30;;;;;;;3.65;1.30;;;;;;;20.63;48.23;102725.69;4974479;28;20049;-59
2022/01/14 01:57:55;;;;;;;4.00;1.33;;;;;;;20.62;48.40;102721.28;4975235;28;20468;-60
2022/01/14 02:00:24;;;;;;;3.38;1.63;;;;;;;20.64;48.31;102722.06;4975082;28;20026;-60
2022/01/14 02:02:50;;;;;;;4.10;1.88;;;;;;;20.70;48.31;102716.25;4974875;28;20080;-60
2022/01/14 02:05:17;;;;;;;2.33;1.30;;;;;;;20.77;48.32;102715.69;4975084;28;20153;-59
2022/01/14 02:07:43;;;;;;;4.32;1.60;;;;;;;20.80;48.21;102714.59;4975229;28;20027;-60
2022/01/14 02:10:09;;;;;;;3.95;1.70;;;;;;;20.74;48.48;102709.72;4975003;28;20054;-59
2022/01/14 02:12:46;;;;;;;3.92;2.53;;;;;;;20.82;48.50;102712.66;4974679;28;20033;-60
2022/01/14 02:15:26;;;;;;;3.15;1.52;;;;;;;20.77;48.64;102715.69;4974782;28;20035;-59
2022/01/14 02:18:23;;;;;;;4.47;1.70;;;;;;;20.75;48.60;102711.41;4974981;28;20031;-60
2022/01/14 02:23:26;;;;;;;3.30;1.45;;;;;;;20.74;48.54;102713.22;4972287;28;20560;-60
2022/01/14 02:25:51;;;;;;;3.50;1.60;;;;;;;20.77;48.29;102712.13;4955267;28;20039;-60
2022/01/14 02:28:17;;;;;;;2.80;1.30;;;;;;;20.73;48.35;102708.84;4955639;29;20379;-60
2022/01/14 02:30:46;;;;;;;3.65;1.48;;;;;;;20.80;48.16;102715.44;4955407;29;20465;-60
2022/01/14 02:33:13;;;;;;;2.40;1.65;;;;;;;20.81;47.91;102716.28;4955184;28;20090;-60
2022/01/14 02:35:40;;;;;;;2.85;1.60;;;;;;;20.80;47.99;102714.59;4955084;29;20221;-60
2022/01/14 02:38:08;;;;;;;5.20;2.25;;;;;;;20.80;48.16;102719.94;4955022;28;20389;-60
2022/01/14 02:40:34;;;;;;;3.38;1.50;;;;;;;20.79;47.89;102718.22;4955093;29;20028;-60
2022/01/14 02:43:01;;;;;;;2.28;1.45;;;;;;;20.76;47.91;102718.47;4954894;28;20078;-60
2022/01/14 02:45:33;;;;;;;3.67;1.50;;;;;;;20.75;47.86;102714.94;4955026;29;20103;-60
2022/01/14 02:47:58;;;;;;;;;;;;;;;20.73;47.86;102708.84;4955266;29;20023;-59
2022/01/14 02:50:25;;;;;;;3.40;1.63;;;;;;;20.48;48.17;102706.25;4954944;29;19918;-60
2022/01/14 02:55:28;;;;;;;2.88;1.38;;;;;;;20.57;47.97;102687.75;4935357;29;20095;-60
2022/01/14 02:57:56;;;;;;;3.35;1.25;;;;;;;20.63;48.01;102696.31;4935346;29;20093;-60
2022/01/14 03:00:25;;;;;;;2.42;1.38;;;;;;;20.64;48.06;102684.69;4935536;29;20027;-60
2022/01/14 03:02:51;;;;;;;1.73;1.10;;;;;;;20.63;47.94;102686.47;4935434;29;20091;-60
2022/01/14 03:05:20;;;;;;;2.75;1.45;;;;;;;20.66;48.14;102699.63;4935532;29;20060;-60
2022/01/14 03:07:46;;;;;;;3.90;1.42;;;;;;;20.75;47.92;102685.59;4935574;29;20027;-60
2022/01/14 03:10:15;;;;;;;2.92;1.30;;;;;;;20.68;48.24;102679.00;4935522;29;20035;-60
2022/01/14 03:12:42;;;;;;;4.43;1.95;;;;;;;20.59;48.50;102672.50;4935364;29;20241;-60
2022/01/14 03:15:09;;;;;;;2.63;1.70;;;;;;;20.75;48.17;102672.22;4935347;29;20027;-60
2022/01/14 03:17:35;;;;;;;3.05;1.55;;;;;;;20.83;48.02;102668.97;4935269;29;20032;-60
2022/01/14 03:20:02;;;;;;;3.95;1.40;;;;;;;20.86;47.96;102671.41;4935137;29;20035;-60
2022/01/14 03:22:35;;;;;;;3.70;1.60;;;;;;;20.86;47.69;102671.41;4935078;29;20028;-60
2022/01/14 03:27:48;;;;;;;2.83;1.50;;;;;;;20.83;47.61;102665.44;4973935;28;20085;-60
2022/01/14 03:30:14;;;;;;;2.70;1.63;;;;;;;20.83;47.67;102676.97;4973415;28;20035;-60
2022/01/14 03:32:43;;;;;;;3.60;1.35;;;;;;;20.75;47.72;102676.69;4973674;28;20029;-62
2022/01/14 03:35:10;;;;;;;4.40;1.80;;;;;;;20.79;47.58;102662.16;4973484;28;20034;-64
2022/01/14 03:37:35;;;;;;;6.13;1.60;;;;;;;20.70;47.92;102662.88;4973473;28;20035;-64
2022/01/14 03:40:02;;;;;;;3.28;1.70;;;;;;;20.71;47.55;102656.53;4973471;28;20056;-64
2022/01/14 03:42:28;;;;;;;4.70;1.80;;;;;;;20.72;47.44;102663.59;4973384;28;20030;-63
2022/01/14 03:44:53;;;;;;;2.97;1.38;;;;;;;20.66;47.61;102664.06;4973327;28;20022;-63
2022/01/14 03:47:18;;;;;;;6.43;1.60;;;;;;;20.66;47.62;102661.41;4973391;28;20129;-63
2022/01/14 03:49:44;;;;;;;4.97;1.30;;;;;;;20.64;47.53;102660.66;4973381;28;20026;-63
2022/01/14 03:52:09;;;;;;;3.88;1.42;;;;;;;20.62;47.56;102657.22;4973201;28;20461;-63
2022/01/14 03:54:35;;;;;;;2.15;1.00;;;;;;;20.54;47.70;102649.78;4957125;28;20031;-63
2022/01/14 03:57:00;;;;;;;2.05;1.17;;;;;;;20.49;48.02;102646.59;4952185;29;20035;-63
2022/01/14 03:59:25;;;;;;;2.70;1.17;;;;;;;20.53;48.12;102650.75;4953000;28;20067;-63
2022/01/14 04:01:51;;;;;;;3.13;1.30;;;;;;;20.58;47.96;102651.25;4953853;28;21365;-63
2022/01/14 04:04:16;;;;;;;2.90;1.27;;;;;;;20.64;47.96;102645.50;4953898;28;20023;-63
2022/01/14 04:06:41;;;;;;;8.27;1.50;;;;;;;20.59;48.16;102637.81;4953790;28;20031;-63
2022/01/14 04:09:07;;;;;;;6.60;1.30;;;;;;;20.73;47.74;102638.59;4954158;28;20081;-63
2022/01/14 04:11:33;;;;;;;3.30;1.35;;;;;;;20.64;47.90;102639.31;4954541;28;20042;-63
2022/01/14 04:15:36;;;;;;;4.05;1.23;;;;;;;20.85;47.55;102634.13;4953687;28;20026;-63
2022/01/14 04:16:45;;;;;;;5.47;1.60;;;;;;;20.87;47.37;102624.19;4953617;29;20070;-63
2022/01/14 04:19:11;;;;;;;2.65;1.02;;;;;;;20.88;47.43;102618.72;4953704;29;20026;-63
2022/01/14 04:21:36;;;;;;;3.03;1.10;;;;;;;20.88;47.47;102626.75;4953552;28;20086;-63
2022/01/14 04:24:02;;;;;;;3.63;1.40;;;;;;;20.79;47.63;102627.44;4964321;28;20123;-63
2022/01/14 04:26:27;;;;;;;3.20;1.25;;;;;;;20.73;47.69;102628.75;4972648;28;20038;-63
2022/01/14 04:28:53;;;;;;;2.90;1.30;;;;;;;20.69;47.80;102631.78;4973097;28;20034;-63
2022/01/14 04:31:18;;;;;;;2.63;1.40;;;;;;;20.96;46.96;102628.84;4972884;28;20026;-63
2022/01/14 04:33:43;;;;;;;3.33;1.20;;;;;;;20.91;46.97;102623.84;4972799;28;20386;-63
2022/01/14 04:36:09;;;;;;;4.18;1.10;;;;;;;20.81;47.24;102622.84;4972701;28;20170;-63
2022/01/14 04:38:35;;;;;;;4.07;1.00;;;;;;;20.79;47.05;102620.31;4972848;28;20027;-63
2022/01/14 04:41:02;;;;;;;2.25;0.90;;;;;;;20.79;47.16;102619.44;4972751;28;20023;-62
2022/01/14 04:43:29;;;;;;;1.67;0.85;;;;;;;20.80;46.87;102615.81;4972914;28;20019;-62
2022/01/14 04:48:40;;;;;;;3.80;1.27;;;;;;;20.73;47.11;102609.22;4981372;28;20101;-63
2022/01/14 04:51:08;;;;;;;2.35;0.95;;;;;;;20.77;46.93;102602.69;4972654;28;20027;-62
2022/01/14 04:53:34;;;;;;;1.98;1.00;;;;;;;20.65;46.97;102595.63;4967371;28;20035;-63
2022/01/14 04:56:00;;;;;;;3.95;1.08;;;;;;;20.73;47.24;102595.88;4972447;28;20174;-62
2022/01/14 04:58:27;;;;;;;1.95;1.08;;;;;;;20.62;47.48;102586.03;4972943;28;20098;-64
2022/01/14 05:00:52;;;;;;;2.58;1.20;;;;;;;20.73;47.23;102585.19;4972691;28;20042;-64
2022/01/14 05:03:18;;;;;;;2.13;0.80;;;;;;;20.84;47.16;102585.22;4972574;28;20034;-64
2022/01/14 05:05:46;;;;;;;2.75;1.00;;;;;;;20.85;47.29;102583.41;4965155;28;20041;-64
2022/01/14 05:08:20;;;;;;;2.25;1.00;;;;;;;20.89;47.12;102580.41;4953245;29;20027;-63
2022/01/14 05:13:21;;;;;;;3.03;0.93;;;;;;;20.57;47.85;102581.00;4954283;28;20553;-63
2022/01/14 05:15:46;;;;;;;2.08;0.82;;;;;;;20.91;47.08;102575.78;4972308;28;20126;-63
2022/01/14 05:18:12;;;;;;;2.92;1.20;;;;;;;20.79;47.33;102568.72;4972460;28;20110;-63
2022/01/14 05:20:38;;;;;;;3.15;0.98;;;;;;;20.93;46.92;102571.19;4974723;28;20026;-63
2022/01/14 05:23:03;;;;;;;2.53;0.77;;;;;;;20.89;46.81;102572.38;4976275;28;20520;-63
2022/01/14 05:25:29;;;;;;;2.50;1.00;;;;;;;20.82;46.97;102584.50;4976012;28;20469;-63
2022/01/14 05:27:54;;;;;;;2.28;1.20;;;;;;;20.94;46.73;102582.69;4975803;28;20105;-63
2022/01/14 05:30:20;;;;;;;0.93;0.68;;;;;;;20.50;47.52;102586.94;4975718;28;20030;-63
2022/01/14 05:32:48;;;;;;;1.55;0.80;;;;;;;20.35;47.99;102588.94;4975643;28;20037;-63
2022/01/14 05:35:24;;;;;;;3.25;0.80;;;;;;;20.46;47.41;102586.31;4975500;28;20037;-63
2022/01/14 05:37:50;;;;;;;1.75;0.65;;;;;;;20.56;47.33;102589.13;4975692;28;20035;-62
2022/01/14 05:40:17;;;;;;;2.15;0.82;;;;;;;20.48;47.53;102589.72;4975514;28;20082;-62
2022/01/14 05:42:43;;;;;;;3.42;0.75;;;;;;;20.16;47.90;102587.66;4974226;28;20448;-63
2022/01/14 05:45:10;;;;;;;2.55;0.93;;;;;;;20.34;47.54;102590.75;4959834;28;20036;-63
2022/01/14 05:47:37;;;;;;;1.40;0.68;;;;;;;20.45;47.32;102587.28;4955988;28;20066;-63
2022/01/14 05:50:04;;;;;;;2.28;0.73;;;;;;;20.58;47.02;102590.72;4956191;29;20382;-63
2022/01/14 05:52:29;;;;;;;1.17;0.68;;;;;;;20.54;46.97;102588.41;4955026;28;20477;-63
2022/01/14 05:54:55;;;;;;;1.10;0.70;;;;;;;20.57;47.15;102588.16;4955942;28;20059;-64
2022/01/14 05:57:20;;;;;;;1.70;0.90;;;;;;;20.58;47.08;102596.06;4955911;29;20071;-63
2022/01/14 05:59:47;;;;;;;2.70;0.60;;;;;;;20.59;47.06;102594.25;4955853;29;20073;-63
2022/01/14 06:02:12;;;;;;;1.15;0.68;;;;;;;20.83;46.56;102599.53;4955747;28;20066;-63
2022/01/14 06:04:38;;;;;;;2.00;0.80;;;;;;;20.81;46.80;102601.47;4955978;28;20062;-63
2022/01/14 06:07:04;;;;;;;1.50;0.73;;;;;;;20.89;46.58;102601.75;4955917;28;20118;-63
2022/01/14 06:09:29;;;;;;;1.40;0.65;;;;;;;20.85;46.79;102605.59;4955821;28;20051;-62
2022/01/14 06:11:54;;;;;;;1.15;0.70;;;;;;;20.68;46.99;102595.41;4955886;28;20039;-63
2022/01/14 06:14:20;;;;;;;1.42;0.60;;;;;;;20.72;46.86;102597.69;4955952;28;20030;-63
2022/01/14 06:16:46;;;;;;;2.28;0.75;;;;;;;20.58;46.96;102593.38;4955429;28;20037;-63
2022/01/14 06:19:11;;;;;;;1.58;0.85;;;;;;;20.59;47.19;102603.09;4955424;28;20402;-63
2022/01/14 06:21:36;;;;;;;2.42;0.70;;;;;;;20.73;46.68;102599.38;4955443;28;20534;-63
2022/01/14 06:24:02;;;;;;;1.70;1.00;;;;;;;20.61;46.88;102597.66;4955391;28;20032;-62
2022/01/14 06:26:28;;;;;;;2.35;0.75;;;;;;;20.58;46.80;102596.06;4955550;29;20023;-63
2022/01/14 06:28:53;;;;;;;1.42;0.70;;;;;;;20.70;46.72;102593.47;4955403;29;20046;-63
2022/01/14 06:31:19;;;;;;;1.55;0.73;;;;;;;20.68;46.48;102593.56;4955229;28;20038;-62
2022/01/14 06:33:44;;;;;;;2.10;0.60;;;;;;;20.59;46.68;102586.25;4955159;28;20030;-62
2022/01/14 06:36:10;;;;;;;2.58;0.70;;;;;;;20.62;46.48;102582.50;4967246;28;20035;-62
2022/01/14 06:38:35;;;;;;;1.75;0.50;;;;;;;20.53;46.62;102582.19;4974495;28;20049;-62
2022/01/14 06:41:02;;;;;;;1.80;0.63;;;;;;;20.64;46.44;102585.94;4974419;28;20041;-62
2022/01/14 06:43:27;;;;;;;4.22;0.70;;;;;;;20.57;46.62;102585.50;4974305;28;20422;-62
2022/01/14 06:45:53;;;;;;;4.25;0.90;;;;;;;20.48;46.91;102584.38;4974169;28;20114;-68
2022/01/14 06:48:18;;;;;;;1.33;0.70;;;;;;;20.55;46.81;102585.59;4974293;28;20066;-66
2022/01/14 06:50:43;;;;;;;1.73;0.57;;;;;;;20.48;47.18;102596.84;4974467;28;20026;-66
2022/01/14 06:53:09;;;;;;;1.83;0.77;;;;;;;20.62;46.80;102587.84;4962264;28;20391;-63
2022/01/14 06:55:34;;;;;;;2.95;0.88;;;;;;;20.72;46.82;102591.53;4954286;28;20036;-66
2022/01/14 06:58:00;;;;;;;4.28;0.80;;;;;;;20.89;46.63;102588.41;4954870;28;20035;-70
2022/01/14 07:00:25;;;;;;;5.05;0.82;;;;;;;21.00;46.92;102587.56;4954636;28;20462;-69
2022/01/14 07:02:51;;;;;;;4.35;1.00;;;;;;;21.08;46.90;102589.63;4954311;28;20023;-70
2022/01/14 07:05:16;;;;;;;1.60;0.70;;;;;;;20.99;47.42;102596.53;4954721;28;20075;-70
2022/01/14 07:07:42;;;;;;;0.80;0.60;;;;;;;21.02;47.50;102592.78;4953791;29;20466;-73
2022/01/14 07:10:08;;;;;;;2.17;0.68;;;;;;;21.10;47.34;102598.38;4954894;28;20023;-78
2022/01/14 07:12:36;;;;;;;4.00;0.77;;;;;;;21.15;47.19;102601.56;4954449;28;20058;-70
2022/01/14 07:15:08;;;;;;;1.85;0.60;;;;;;;21.07;47.23;102598.59;4954683;28;20746;-72
2022/01/14 07:17:34;;;;;;;3.33;0.68;;;;;;;21.06;47.30;102596.91;4954357;28;20031;-69
2022/01/14 07:20:05;;;;;;;3.53;0.63;;;;;;;21.13;47.08;102596.31;4954417;28;20035;-71
2022/01/14 07:22:31;;;;;;;;;;;;;;;21.18;46.73;102590.63;4954180;28;20023;-70
2022/01/14 07:24:56;;;;;;;2.63;0.95;;;;;;;21.15;46.55;102593.53;4954360;28;19922;-74
2022/01/14 07:27:21;;;;;;;2.72;0.50;;;;;;;21.13;46.36;102592.78;4954268;28;20027;-76
2022/01/14 07:29:47;;;;;;;2.45;0.95;;;;;;;21.12;46.27;102596.44;4953993;28;20031;-72
2022/01/14 07:32:12;;;;;;;3.60;0.80;;;;;;;21.02;46.66;102596.31;4953860;28;20023;-70
2022/01/14 07:34:38;;;;;;;2.38;0.75;;;;;;;21.15;46.23;102588.19;4954278;28;20029;-72
2022/01/14 07:37:04;;;;;;;4.05;1.48;;;;;;;21.29;46.01;102587.13;4953595;28;20031;-76
2022/01/14 07:39:29;;;;;;;2.65;1.00;;;;;;;21.24;46.06;102592.78;4952805;28;20504;-75
2022/01/14 07:41:55;;;;;;;6.50;0.98;;;;;;;21.25;46.03;102597.19;4953374;28;20102;-72
2022/01/14 07:44:20;;;;;;;4.93;1.30;;;;;;;21.39;45.58;102593.41;4953975;28;20066;-71
2022/01/14 07:46:47;;;;;;;5.88;0.90;;;;;;;21.39;45.65;102588.91;4954063;28;20034;-73
2022/01/14 07:49:13;;;;;;;2.20;0.98;;;;;;;21.37;45.83;102596.22;4954098;28;20405;-75
2022/01/14 07:51:39;;;;;;;1.85;0.80;;;;;;;21.43;45.25;102594.91;4953672;28;20554;-74
2022/01/14 07:54:07;;;;;;;4.57;1.35;;;;;;;21.37;45.29;102590.03;4952817;29;20110;-68
2022/01/14 07:56:34;;;;;;;4.97;1.00;;;;;;;21.27;45.45;102595.25;4961478;28;20043;-75
2022/01/14 07:59:00;;;;;;;6.15;0.90;;;;;;;21.18;45.65;102596.78;4952742;28;20051;-68
2022/01/14 08:01:27;;;;;;;2.20;0.98;;;;;;;21.07;45.77;102591.47;4953258;28;20067;-67
2022/01/14 08:03:53;;;;;;;5.45;1.30;;;;;;;20.91;45.51;102590.94;4953061;28;20110;-76
2022/01/14 08:06:19;;;;;;;8.25;2.15;;;;;;;20.60;43.06;102596.81;4953577;29;20554;-76
2022/01/14 08:08:44;;;;;;;6.20;1.98;;;;;;;20.28;43.87;102593.88;4952683;28;20055;-75
2022/01/14 08:11:09;;;;;;;5.32;1.70;;;;;;;20.13;44.78;102603.88;4953120;29;20087;-71
2022/01/14 08:13:35;;;;;;;6.78;1.95;;;;;;;20.38;44.57;102602.91;4953512;28;20062;-75
2022/01/14 08:16:01;;;;;;;5.15;1.83;;;;;;;20.35;45.44;102611.13;4953660;28;20459;-75
2022/01/14 08:18:26;;;;;;;4.72;1.42;;;;;;;20.37;45.05;102613.69;4953367;28;20089;-69
2022/01/14 08:20:52;;;;;;;10.98;1.80;;;;;;;20.40;45.68;102619.66;4953050;28;20035;-70
2022/01/14 08:23:19;;;;;;;4.68;1.50;;;;;;;20.70;45.00;102617.50;4960659;28;20034;-65
2022/01/14 08:25:44;;;;;;;8.98;1.52;;;;;;;20.87;45.12;102619.69;4956256;28;20034;-64
2022/01/14 08:28:10;;;;;;;7.20;2.33;;;;;;;20.88;45.33;102615.22;4953433;29;20023;-66
2022/01/14 08:30:35;;;;;;;9.50;1.77;;;;;;;20.85;45.56;102620.78;4954650;28;20118;-66
2022/01/14 08:33:01;;;;;;;5.70;1.60;;;;;;;20.76;45.74;102619.69;4961542;28;20036;-72
2022/01/14 08:35:26;;;;;;;16.33;3.30;;;;;;;20.86;45.63;102618.00;4956584;28;20078;-68
2022/01/14 08:37:51;;;;;;;8.32;2.17;;;;;;;20.78;45.78;102615.91;4972626;28;20035;-68
2022/01/14 08:40:17;;;;;;;4.60;2.22;;;;;;;20.79;45.41;102622.09;4961472;28;20086;-68
2022/01/14 08:42:45;;;;;;;15.75;2.10;;;;;;;20.39;46.52;102614.41;4960315;28;20367;-62
2022/01/14 08:45:10;;;;;;;8.02;2.30;;;;;;;20.65;45.39;102620.47;4969913;28;20121;-62
2022/01/14 08:47:36;;;;;;;5.35;1.98;;;;;;;20.75;45.15;102615.28;4972595;28;20578;-62
2022/01/14 08:50:01;;;;;;;6.25;1.65;;;;;;;20.71;45.12;102611.16;4971491;28;20034;-62
2022/01/14 08:52:26;;;;;;;2.78;1.90;;;;;;;20.93;44.73;102608.56;4972388;28;20367;-62
2022/01/14 08:54:52;;;;;;;8.52;1.90;;;;;;;21.07;44.46;102611.97;4974294;28;20034;-62
2022/01/14 08:57:18;;;;;;;3.45;1.75;;;;;;;21.09;44.41;102607.34;4976226;28;20034;-62
2022/01/14 08:59:44;;;;;;;8.93;1.52;;;;;;;20.89;44.98;102614.25;4976397;28;20058;-62
2022/01/14 09:02:10;;;;;;;6.43;1.48;;;;;;;20.94;45.06;102609.41;4976365;28;20027;-62
2022/01/14 09:04:35;;;;;;;4.40;1.60;;;;;;;21.08;44.96;102611.00;4976278;28;20497;-62
2022/01/14 09:07:01;;;;;;;2.92;1.65;;;;;;;21.09;44.92;102608.22;4976181;28;20067;-62
2022/01/14 09:09:27;;;;;;;6.65;2.00;;;;;;;21.20;44.87;102605.53;4974790;28;20477;-62
2022/01/14 09:11:54;;;;;;;3.20;1.60;;;;;;;21.17;44.98;102616.47;4970974;28;20035;-63
2022/01/14 09:14:21;;;;;;;3.85;1.77;;;;;;;21.02;45.46;102609.66;4976060;28;20030;-63
2022/01/14 09:16:47;;;;;;;3.05;1.23;;;;;;;21.28;45.07;102607.63;4975975;28;20031;-63
2022/01/14 09:19:12;;;;;;;2.78;1.48;;;;;;;21.35;45.03;102606.16;4976073;28;20484;-63
2022/01/14 09:21:38;;;;;;;3.20;1.52;;;;;;;21.44;44.89;102599.25;4975904;28;20026;-63
2022/01/14 09:24:03;;;;;;;5.88;1.48;;;;;;;21.45;44.84;102597.47;4975877;28;20030;-63
2022/01/14 09:26:33;;;;;;;4.03;2.13;;;;;;;21.43;45.01;102594.91;4975539;28;20034;-63
2022/01/14 09:29:01;;;;;;;1.70;1.23;;;;;;;21.54;44.71;102594.03;4967349;28;20031;-63
2022/01/14 09:31:26;;;;;;;3.90;1.60;;;;;;;21.57;44.10;102591.13;4973891;28;20129;-63
2022/01/14 09:33:52;;;;;;;7.28;2.38;;;;;;;21.37;45.03;102598.03;4975624;28;20520;-63
2022/01/14 09:36:17;;;;;;;5.68;2.00;;;;;;;21.40;44.73;102584.41;4968595;28;20035;-63
2022/01/14 09:38:43;;;;;;;5.93;1.70;;;;;;;20.97;45.57;102591.34;4957359;28;20019;-63
2022/01/14 09:41:08;;;;;;;13.35;2.40;;;;;;;20.79;46.02;102603.41;4960644;28;20033;-63
2022/01/14 09:43:38;;;;;;;4.40;1.92;;;;;;;20.81;45.84;102604.16;4973858;28;20079;-63
2022/01/14 09:46:05;;;;;;;8.68;1.92;;;;;;;20.91;46.13;102602.50;4971318;28;20027;-61
2022/01/14 09:48:31;;;;;;;4.65;1.95;;;;;;;21.06;46.13;102600.44;4956079;29;20023;-62
2022/01/14 09:50:58;;;;;;;12.50;1.90;;;;;;;21.08;46.48;102594.97;4958149;28;20043;-61
2022/01/14 09:53:25;;;;;;;4.70;1.85;;;;;;;21.14;46.62;102599.84;4975050;28;20027;-61
2022/01/14 09:55:51;;;;;;;5.45;1.88;;;;;;;21.25;46.46;102601.66;4973782;28;20035;-59
2022/01/14 09:58:16;;;;;;;5.35;1.60;;;;;;;21.36;46.25;102594.50;4965551;28;20029;-64
2022/01/14 10:00:42;;;;;;;5.10;1.65;;;;;;;21.30;46.52;102600.31;4975348;28;20604;-59
2022/01/14 10:03:24;;;;;;;6.43;1.95;;;;;;;21.46;46.62;102599.16;4955970;28;20034;-72
2022/01/14 10:05:55;;;;;;;5.53;1.85;;;;;;;21.51;46.56;102595.13;4955273;28;20039;-68
2022/01/14 10:08:25;;;;;;;4.40;2.13;;;;;;;21.67;46.36;102596.59;4936543;28;20106;-66
2022/01/14 10:10:59;;;;;;;5.63;1.70;;;;;;;21.68;46.37;102599.16;4963301;28;20027;-66
2022/01/14 10:13:33;;;;;;;4.03;1.60;;;;;;;21.71;46.35;102593.53;4955487;28;20122;-67
2022/01/14 10:16:07;;;;;;;7.18;1.50;;;;;;;21.76;46.22;102595.81;4961803;28;20031;-66
2022/01/14 10:18:35;;;;;;;2.88;1.83;;;;;;;21.78;46.17;102584.06;4974770;28;20023;-65
2022/01/14 10:21:06;;;;;;;5.85;1.73;;;;;;;21.83;46.23;102583.66;4968161;28;20070;-67
2022/01/14 10:24:01;;;;;;;4.60;1.92;;;;;;;22.03;45.69;102586.53;4956310;28;20042;-66
2022/01/14 10:26:27;;;;;;;5.18;1.98;;;;;;;21.93;45.88;102591.78;4963561;28;20041;-67
2022/01/14 10:29:07;;;;;;;7.65;1.98;;;;;;;21.91;46.07;102591.06;4974591;28;20052;-65
2022/01/14 10:31:34;;;;;;;3.95;2.00;;;;;;;21.99;45.93;102585.94;4964642;28;20049;-65
2022/01/14 10:34:11;;;;;;;2.90;1.55;;;;;;;21.98;45.94;102586.91;4955274;29;20031;-66
2022/01/14 10:36:37;;;;;;;4.25;1.98;;;;;;;22.04;45.76;102583.75;4964413;28;20501;-63
2022/01/14 10:39:18;;;;;;;4.90;1.80;;;;;;;22.07;45.76;102578.13;4970657;28;20046;-63
2022/01/14 10:41:43;;;;;;;3.50;2.03;;;;;;;22.06;46.02;102581.78;4963608;28;20379;-67
2022/01/14 10:44:27;;;;;;;9.60;1.92;;;;;;;22.08;45.98;102571.81;4974315;28;20038;-68
2022/01/14 10:47:13;;;;;;;4.75;2.17;;;;;;;22.07;45.99;102569.25;4963365;28;20113;-69
2022/01/14 10:49:40;;;;;;;4.55;2.05;;;;;;;21.99;45.95;102564.53;4954878;29;20031;-65
2022/01/14 10:52:10;;;;;;;3.72;1.65;;;;;;;22.02;45.93;102566.97;4966004;28;20450;-66
2022/01/14 10:54:42;;;;;;;5.85;2.58;;;;;;;21.97;46.00;102558.47;4974257;28;20085;-65
2022/01/14 10:57:15;;;;;;;3.97;2.05;;;;;;;22.02;46.06;102558.06;4963427;28;20129;-65
2022/01/14 10:59:40;;;;;;;7.88;2.15;;;;;;;21.84;46.34;102558.63;4954773;29;20358;-64
2022/01/14 11:02:34;;;;;;;4.50;2.38;;;;;;;21.97;46.00;102553.94;4972085;28;20477;-65
2022/01/14 11:05:11;;;;;;;2.63;2.00;;;;;;;22.01;46.07;102551.88;4973367;28;20081;-65
2022/01/14 11:07:38;;;;;;;3.10;2.25;;;;;;;22.01;46.07;102551.88;4954520;28;20034;-64
2022/01/14 11:10:15;;;;;;;4.75;2.50;;;;;;;22.00;46.15;102539.50;4955430;28;20027;-66
2022/01/14 11:12:41;;;;;;;3.75;1.77;;;;;;;22.01;46.22;102541.19;4954335;28;20180;-66
2022/01/14 11:15:09;;;;;;;6.45;2.28;;;;;;;22.01;45.88;102535.81;4967482;28;20042;-65
2022/01/14 11:17:39;;;;;;;3.67;1.98;;;;;;;22.03;46.11;102539.22;4972458;28;20035;-63
2022/01/14 11:20:08;;;;;;;2.40;1.65;;;;;;;21.92;46.35;102526.75;4935160;29;20023;-66
2022/01/14 11:25:19;;;;;;;2.90;1.92;;;;;;;21.98;46.46;102522.72;4973288;28;20034;-66
2022/01/14 11:27:59;;;;;;;7.65;2.17;;;;;;;21.91;46.67;102518.84;4954615;28;20031;-67
2022/01/14 11:30:51;;;;;;;4.65;2.10;;;;;;;22.18;46.14;102519.22;4954723;28;20035;-68
2022/01/14 11:33:19;;;;;;;3.67;2.10;;;;;;;22.31;45.96;102510.19;4974052;28;20127;-64
2022/01/14 11:35:54;;;;;;;5.78;1.95;;;;;;;22.25;45.96;102510.72;4969951;28;20038;-64
2022/01/14 11:38:43;;;;;;;4.55;1.90;;;;;;;22.18;46.18;102505.84;4954343;28;20047;-63
2022/01/14 11:41:16;;;;;;;3.13;1.75;;;;;;;22.19;46.25;102501.34;4953802;28;20023;-63
2022/01/14 11:43:44;;;;;;;3.35;1.92;;;;;;;22.23;46.21;102497.41;4954038;28;20055;-63
2022/01/14 11:46:14;;;;;;;3.67;2.25;;;;;;;22.29;46.28;102496.09;4958671;28;20389;-66
2022/01/14 11:48:47;;;;;;;4.00;1.92;;;;;;;22.32;46.38;102491.31;4973456;28;20110;-64
2022/01/14 11:51:15;;;;;;;2.67;1.60;;;;;;;22.26;46.52;102489.19;4960877;28;20390;-63
2022/01/14 11:53:44;;;;;;;3.85;2.40;;;;;;;22.14;44.41;102482.16;4953617;28;20023;-64
2022/01/14 11:56:31;;;;;;;5.45;2.88;;;;;;;22.16;46.04;102481.03;4963859;28;20077;-63
2022/01/14 11:59:20;;;;;;;5.13;2.40;;;;;;;22.22;46.01;102474.34;4972909;28;20417;-63